createdAt,value
2022-10-25T00:00:42.164Z,80.27
2022-10-25T00:01:42.303Z,80.37
2022-10-25T00:02:42.241Z,80.37
2022-10-25T00:03:42.116Z,80.17
2022-10-25T00:04:42.116Z,80.07
2022-10-25T00:05:42.099Z,80.27
2022-10-25T00:06:42.097Z,80.37
2022-10-25T00:07:42.067Z,80.37
2022-10-25T00:08:42.075Z,80.37
2022-10-25T00:09:42.045Z,80.17
2022-10-25T00:10:42.037Z,80.27
2022-10-25T00:11:42.016Z,80.37
2022-10-25T00:12:42.019Z,80.68
2022-10-25T00:13:42.007Z,80.68
2022-10-25T00:14:41.985Z,80.68
2022-10-25T00:15:41.965Z,80.78
2022-10-25T00:16:41.956Z,80.78
2022-10-25T00:17:41.936Z,80.78
2022-10-25T00:18:41.937Z,80.78
2022-10-25T00:19:41.917Z,80.98
2022-10-25T00:20:41.926Z,80.98
2022-10-25T00:21:41.894Z,81.09
2022-10-25T00:22:41.875Z,81.09
2022-10-25T00:23:41.875Z,81.19
2022-10-25T00:24:41.846Z,81.19
2022-10-25T00:25:41.835Z,81.19
2022-10-25T00:26:41.824Z,81.19
2022-10-25T00:27:41.804Z,81.19
2022-10-25T00:28:41.818Z,81.39
2022-10-25T00:29:41.786Z,81.39
2022-10-25T00:30:41.777Z,81.49
2022-10-25T00:31:41.757Z,81.49
2022-10-25T00:32:41.744Z,81.59
2022-10-25T00:33:41.758Z,81.70
2022-10-25T00:34:41.715Z,81.59
2022-10-25T00:35:41.724Z,81.70
2022-10-25T00:36:41.695Z,81.70
2022-10-25T00:37:41.706Z,81.70
2022-10-25T00:38:41.722Z,81.70
2022-10-25T00:39:41.655Z,81.84
2022-10-25T00:40:41.643Z,81.84
2022-10-25T00:41:41.624Z,81.93
2022-10-25T00:42:41.605Z,81.84
2022-10-25T00:43:41.604Z,81.73
2022-10-25T00:44:41.603Z,81.84
2022-10-25T00:45:41.573Z,81.73
2022-10-25T00:46:41.577Z,81.63
2022-10-25T00:47:41.546Z,81.63
2022-10-25T00:48:41.554Z,81.53
2022-10-25T00:49:41.515Z,81.63
2022-10-25T00:50:41.512Z,81.63
2022-10-25T00:51:41.494Z,81.63
2022-10-25T00:52:41.503Z,81.53
2022-10-25T00:53:41.495Z,81.63
2022-10-25T00:54:41.464Z,81.53
2022-10-25T00:55:41.465Z,81.73
2022-10-25T00:56:41.433Z,81.63
2022-10-25T00:57:41.426Z,81.73
2022-10-25T00:58:41.433Z,81.63
2022-10-25T00:59:41.393Z,81.63
2022-10-25T01:00:41.384Z,81.63
2022-10-25T01:01:41.475Z,81.63
2022-10-25T01:02:41.485Z,81.63
2022-10-25T01:03:41.353Z,81.84
2022-10-25T01:04:41.357Z,81.73
2022-10-25T01:05:41.316Z,81.73
2022-10-25T01:06:41.304Z,81.63
2022-10-25T01:07:41.283Z,81.84
2022-10-25T01:08:41.294Z,81.73
2022-10-25T01:09:41.253Z,81.73
2022-10-25T01:10:41.248Z,81.73
2022-10-25T01:11:41.234Z,81.93
2022-10-25T01:12:41.223Z,82.14
2022-10-25T01:13:41.222Z,82.14
2022-10-25T01:14:41.202Z,82.14
2022-10-25T01:15:41.182Z,82.24
2022-10-25T01:16:41.172Z,82.34
2022-10-25T01:17:41.153Z,82.45
2022-10-25T01:18:41.163Z,82.34
2022-10-25T01:19:41.122Z,82.24
2022-10-25T01:20:41.124Z,82.14
2022-10-25T01:21:41.103Z,82.04
2022-10-25T01:22:41.102Z,82.04
2022-10-25T01:23:41.098Z,82.24
2022-10-25T01:24:41.062Z,82.34
2022-10-25T01:25:41.052Z,82.34
2022-10-25T01:26:41.030Z,82.34
2022-10-25T01:27:41.024Z,82.34
2022-10-25T01:28:41.024Z,82.34
2022-10-25T01:29:40.993Z,82.38
2022-10-25T01:30:40.981Z,82.45
2022-10-25T01:31:40.972Z,82.59
2022-10-25T01:32:40.962Z,82.68
2022-10-25T01:33:40.963Z,82.59
2022-10-25T01:34:40.931Z,82.59
2022-10-25T01:35:40.913Z,82.59
2022-10-25T01:36:40.900Z,82.59
2022-10-25T01:37:40.902Z,82.68
2022-10-25T01:38:40.892Z,82.68
2022-10-25T01:39:40.872Z,82.68
2022-10-25T01:40:40.862Z,82.59
2022-10-25T01:41:40.840Z,82.68
2022-10-25T01:42:40.825Z,82.68
2022-10-25T01:43:40.835Z,82.68
2022-10-25T01:44:40.792Z,82.68
2022-10-25T01:45:40.801Z,82.79
2022-10-25T01:46:40.780Z,82.79
2022-10-25T01:47:40.761Z,82.79
2022-10-25T01:48:40.750Z,82.79
2022-10-25T01:49:40.750Z,82.79
2022-10-25T01:50:40.721Z,82.79
2022-10-25T01:51:40.710Z,82.99
2022-10-25T01:52:40.695Z,83.09
2022-10-25T01:53:40.701Z,82.89
2022-10-25T01:54:40.678Z,83.09
2022-10-25T01:55:40.670Z,82.99
2022-10-25T01:56:40.640Z,82.99
2022-10-25T01:57:40.630Z,82.99
2022-10-25T01:58:40.635Z,83.09
2022-10-25T01:59:40.612Z,82.99
2022-10-25T02:00:40.658Z,82.99
2022-10-25T02:01:40.882Z,82.99
2022-10-25T02:02:40.559Z,83.20
2022-10-25T02:03:40.580Z,83.20
2022-10-25T02:04:40.529Z,83.20
2022-10-25T02:05:40.530Z,83.29
2022-10-25T02:06:40.509Z,83.20
2022-10-25T02:07:40.497Z,83.09
2022-10-25T02:08:40.509Z,83.20
2022-10-25T02:09:40.478Z,83.09
2022-10-25T02:10:40.449Z,83.20
2022-10-25T02:11:40.459Z,83.13
2022-10-25T02:12:40.437Z,83.23
2022-10-25T02:13:40.438Z,83.23
2022-10-25T02:14:40.409Z,83.34
2022-10-25T02:15:40.408Z,83.44
2022-10-25T02:16:40.393Z,83.34
2022-10-25T02:17:40.386Z,83.34
2022-10-25T02:18:40.370Z,83.34
2022-10-25T02:19:40.347Z,83.44
2022-10-25T02:20:43.073Z,83.44
2022-10-25T02:21:41.341Z,83.34
2022-10-25T02:22:40.299Z,83.23
2022-10-25T02:23:40.317Z,83.34
2022-10-25T02:24:40.269Z,83.23
2022-10-25T02:25:40.277Z,83.34
2022-10-25T02:26:40.301Z,83.54
2022-10-25T02:27:40.248Z,83.64
2022-10-25T02:28:40.263Z,83.64
2022-10-25T02:29:40.220Z,83.64
2022-10-25T02:30:40.198Z,83.64
2022-10-25T02:31:40.188Z,83.95
2022-10-25T02:32:40.175Z,83.84
2022-10-25T02:33:40.170Z,83.95
2022-10-25T02:34:40.149Z,84.05
2022-10-25T02:35:40.141Z,84.25
2022-10-25T02:36:40.127Z,84.25
2022-10-25T02:37:40.107Z,84.25
2022-10-25T02:38:40.115Z,84.45
2022-10-25T02:39:40.088Z,84.45
2022-10-25T02:40:40.080Z,84.66
2022-10-25T02:41:40.057Z,84.56
2022-10-25T02:42:40.036Z,84.56
2022-10-25T02:43:40.054Z,84.76
2022-10-25T02:44:40.020Z,84.86
2022-10-25T02:45:40.008Z,84.97
2022-10-25T02:46:39.987Z,84.97
2022-10-25T02:47:39.976Z,84.97
2022-10-25T02:48:39.986Z,84.86
2022-10-25T02:49:39.946Z,84.86
2022-10-25T02:50:39.936Z,85.27
2022-10-25T02:51:39.997Z,85.68
2022-10-25T02:52:39.907Z,85.68
2022-10-25T02:53:39.916Z,85.78
2022-10-25T02:54:39.897Z,85.78
2022-10-25T02:55:39.874Z,85.47
2022-10-25T02:56:39.876Z,85.68
2022-10-25T02:57:39.848Z,85.78
2022-10-25T02:58:39.846Z,85.88
2022-10-25T02:59:39.816Z,86.08
2022-10-25T03:00:39.870Z,86.19
2022-10-25T03:01:39.835Z,86.49
2022-10-25T03:02:39.776Z,86.29
2022-10-25T03:03:39.795Z,86.49
2022-10-25T03:04:39.746Z,86.39
2022-10-25T03:05:39.763Z,86.39
2022-10-25T03:06:39.734Z,86.29
2022-10-25T03:07:39.715Z,86.49
2022-10-25T03:08:39.719Z,86.49
2022-10-25T03:09:39.686Z,86.39
2022-10-25T03:10:39.675Z,86.49
2022-10-25T03:11:39.664Z,86.49
2022-10-25T03:12:39.644Z,86.49
2022-10-25T03:13:39.680Z,86.49
2022-10-25T03:14:39.625Z,86.39
2022-10-25T03:15:39.625Z,86.29
2022-10-25T03:16:39.672Z,86.19
2022-10-25T03:17:39.584Z,86.29
2022-10-25T03:18:39.584Z,86.29
2022-10-25T03:19:39.565Z,86.29
2022-10-25T03:20:39.551Z,86.29
2022-10-25T03:21:41.302Z,86.29
2022-10-25T03:22:39.514Z,86.08
2022-10-25T03:23:39.513Z,86.19
2022-10-25T03:24:39.504Z,86.22
2022-10-25T03:25:39.484Z,86.13
2022-10-25T03:26:39.469Z,86.22
2022-10-25T03:27:39.462Z,86.22
2022-10-25T03:28:39.442Z,86.13
2022-10-25T03:29:39.448Z,85.82
2022-10-25T03:30:39.420Z,86.02
2022-10-25T03:31:39.413Z,86.13
2022-10-25T03:32:39.393Z,86.22
2022-10-25T03:33:39.381Z,86.22
2022-10-25T03:34:39.374Z,86.13
2022-10-25T03:35:39.353Z,86.33
2022-10-25T03:36:39.344Z,86.22
2022-10-25T03:37:39.325Z,86.22
2022-10-25T03:38:39.313Z,86.22
2022-10-25T03:39:39.318Z,86.22
2022-10-25T03:40:39.285Z,86.13
2022-10-25T03:41:39.304Z,86.13
2022-10-25T03:42:39.264Z,86.33
2022-10-25T03:43:39.249Z,86.13
2022-10-25T03:44:39.244Z,86.22
2022-10-25T03:45:39.225Z,86.13
2022-10-25T03:46:39.215Z,86.13
2022-10-25T03:47:39.203Z,86.43
2022-10-25T03:48:39.192Z,86.43
2022-10-25T03:49:39.205Z,86.43
2022-10-25T03:50:39.173Z,86.63
2022-10-25T03:51:39.164Z,86.63
2022-10-25T03:52:39.131Z,86.74
2022-10-25T03:53:39.122Z,86.63
2022-10-25T03:54:39.127Z,86.94
2022-10-25T03:55:39.103Z,87.04
2022-10-25T03:56:39.084Z,87.24
2022-10-25T03:57:39.081Z,87.14
2022-10-25T03:58:39.065Z,87.14
2022-10-25T03:59:39.064Z,87.35
2022-10-25T04:00:39.092Z,87.24
2022-10-25T04:01:39.125Z,87.45
2022-10-25T04:02:39.004Z,87.35
2022-10-25T04:03:38.991Z,87.24
2022-10-25T04:04:38.996Z,87.04
2022-10-25T04:05:38.970Z,87.04
2022-10-25T04:06:38.961Z,87.45
2022-10-25T04:07:38.941Z,87.55
2022-10-25T04:08:38.924Z,87.35
2022-10-25T04:09:38.934Z,87.14
2022-10-25T04:10:38.892Z,87.14
2022-10-25T04:11:38.890Z,87.14
2022-10-25T04:12:38.905Z,87.04
2022-10-25T04:13:38.895Z,87.24
2022-10-25T04:14:38.861Z,87.35
2022-10-25T04:15:38.840Z,87.55
2022-10-25T04:16:38.829Z,87.45
2022-10-25T04:17:38.810Z,87.24
2022-10-25T04:18:38.790Z,87.45
2022-10-25T04:19:38.801Z,87.55
2022-10-25T04:20:38.773Z,87.45
2022-10-25T04:21:38.762Z,87.35
2022-10-25T04:22:38.768Z,87.55
2022-10-25T04:23:38.752Z,87.75
2022-10-25T04:24:38.730Z,87.75
2022-10-25T04:25:38.719Z,87.45
2022-10-25T04:26:38.689Z,87.45
2022-10-25T04:27:38.684Z,87.35
2022-10-25T04:28:38.670Z,87.24
2022-10-25T04:29:38.671Z,87.24
2022-10-25T04:30:38.987Z,87.24
2022-10-25T04:31:38.630Z,87.14
2022-10-25T04:32:38.625Z,87.14
2022-10-25T04:33:38.608Z,87.14
2022-10-25T04:34:38.600Z,87.14
2022-10-25T04:35:38.579Z,87.14
2022-10-25T04:36:38.559Z,87.14
2022-10-25T04:37:38.550Z,87.14
2022-10-25T04:38:38.530Z,87.14
2022-10-25T04:39:38.548Z,87.35
2022-10-25T04:40:38.507Z,87.55
2022-10-25T04:41:38.497Z,87.75
2022-10-25T04:42:38.482Z,87.75
2022-10-25T04:43:38.483Z,87.75
2022-10-25T04:44:38.475Z,87.65
2022-10-25T04:45:38.450Z,87.55
2022-10-25T04:46:38.427Z,87.65
2022-10-25T04:47:38.428Z,87.55
2022-10-25T04:48:38.408Z,87.75
2022-10-25T04:49:38.428Z,87.75
2022-10-25T04:50:38.406Z,87.75
2022-10-25T04:51:38.417Z,87.96
2022-10-25T04:52:38.377Z,88.06
2022-10-25T04:53:38.388Z,87.90
2022-10-25T04:54:38.388Z,87.75
2022-10-25T04:55:38.349Z,87.65
2022-10-25T04:56:38.308Z,87.75
2022-10-25T04:57:38.327Z,87.85
2022-10-25T04:58:38.277Z,88.06
2022-10-25T04:59:38.277Z,87.96
2022-10-25T05:00:38.257Z,88.00
2022-10-25T05:01:38.347Z,88.10
2022-10-25T05:02:38.259Z,88.31
2022-10-25T05:03:38.222Z,88.31
2022-10-25T05:04:46.901Z,88.16
2022-10-25T05:05:38.191Z,88.31
2022-10-25T05:06:38.170Z,88.40
2022-10-25T05:07:38.159Z,88.51
2022-10-25T05:08:38.141Z,88.51
2022-10-25T05:09:38.160Z,88.61
2022-10-25T05:10:38.121Z,88.71
2022-10-25T05:11:38.135Z,88.81
2022-10-25T05:12:38.098Z,88.92
2022-10-25T05:13:38.107Z,88.92
2022-10-25T05:14:38.086Z,89.22
2022-10-25T05:15:38.072Z,89.32
2022-10-25T05:16:38.048Z,89.32
2022-10-25T05:17:38.032Z,89.32
2022-10-25T05:18:38.019Z,89.42
2022-10-25T05:19:38.165Z,89.32
2022-10-25T05:20:38.007Z,89.42
2022-10-25T05:21:37.983Z,89.63
2022-10-25T05:22:37.969Z,89.42
2022-10-25T05:23:37.966Z,89.22
2022-10-25T05:24:38.072Z,89.22
2022-10-25T05:25:37.931Z,89.22
2022-10-25T05:26:37.912Z,89.12
2022-10-25T05:27:37.902Z,89.12
2022-10-25T05:28:37.922Z,89.12
2022-10-25T05:29:37.899Z,89.12
2022-10-25T05:30:37.867Z,89.22
2022-10-25T05:31:37.848Z,89.32
2022-10-25T05:32:37.836Z,89.42
2022-10-25T05:33:37.830Z,89.32
2022-10-25T05:34:37.827Z,89.32
2022-10-25T05:35:37.796Z,89.12
2022-10-25T05:36:37.795Z,89.32
2022-10-25T05:37:37.758Z,89.42
2022-10-25T05:38:38.036Z,89.53
2022-10-25T05:39:37.746Z,89.63
2022-10-25T05:40:37.744Z,89.63
2022-10-25T05:41:37.708Z,89.63
2022-10-25T05:42:37.710Z,89.42
2022-10-25T05:43:37.687Z,89.42
2022-10-25T05:44:37.760Z,89.32
2022-10-25T05:45:37.656Z,89.32
2022-10-25T05:46:37.654Z,89.42
2022-10-25T05:47:37.630Z,89.42
2022-10-25T05:48:37.625Z,89.53
2022-10-25T05:49:37.628Z,89.53
2022-10-25T05:50:37.649Z,89.63
2022-10-25T05:51:37.700Z,89.63
2022-10-25T05:52:37.569Z,89.83
2022-10-25T05:53:37.557Z,90.03
2022-10-25T05:54:37.584Z,90.14
2022-10-25T05:55:37.525Z,90.03
2022-10-25T05:56:37.528Z,90.14
2022-10-25T05:57:37.528Z,90.24
2022-10-25T05:58:37.506Z,90.24
2022-10-25T05:59:37.494Z,90.24
2022-10-25T06:01:37.598Z,90.34
2022-10-25T06:02:37.446Z,90.24
2022-10-25T06:03:37.439Z,90.34
2022-10-25T06:04:37.439Z,90.44
2022-10-25T06:05:37.396Z,90.34
2022-10-25T06:06:37.398Z,90.14
2022-10-25T06:07:37.365Z,90.34
2022-10-25T06:08:37.375Z,90.14
2022-10-25T06:09:37.363Z,90.03
2022-10-25T06:10:37.380Z,89.83
2022-10-25T06:11:37.330Z,89.83
2022-10-25T06:12:37.326Z,89.83
2022-10-25T06:13:37.305Z,90.03
2022-10-25T06:14:37.304Z,90.24
2022-10-25T06:15:37.281Z,90.14
2022-10-25T06:16:37.267Z,90.03
2022-10-25T06:17:37.249Z,90.14
2022-10-25T06:18:37.239Z,90.24
2022-10-25T06:19:37.228Z,90.34
2022-10-25T06:20:37.258Z,90.03
2022-10-25T06:21:37.197Z,89.83
2022-10-25T06:22:37.187Z,90.03
2022-10-25T06:23:37.174Z,89.94
2022-10-25T06:24:37.171Z,89.94
2022-10-25T06:25:37.138Z,90.24
2022-10-25T06:26:37.126Z,90.24
2022-10-25T06:27:37.116Z,90.34
2022-10-25T06:28:37.107Z,90.34
2022-10-25T06:29:37.130Z,90.34
2022-10-25T06:30:37.165Z,90.24
2022-10-25T06:31:37.071Z,90.24
2022-10-25T06:32:37.059Z,90.24
2022-10-25T06:33:37.042Z,90.44
2022-10-25T06:34:37.048Z,90.24
2022-10-25T06:35:37.028Z,90.24
2022-10-25T06:36:36.994Z,90.24
2022-10-25T06:37:36.990Z,90.34
2022-10-25T06:38:36.965Z,90.44
2022-10-25T06:39:36.987Z,90.55
2022-10-25T06:40:36.946Z,90.64
2022-10-25T06:41:37.494Z,90.44
2022-10-25T06:42:36.923Z,90.44
2022-10-25T06:43:36.894Z,90.34
2022-10-25T06:44:36.904Z,90.24
2022-10-25T06:45:36.901Z,90.20
2022-10-25T06:46:57.803Z,90.20
2022-10-25T06:47:37.849Z,90.09
2022-10-25T06:48:36.849Z,90.09
2022-10-25T06:49:36.837Z,89.99
2022-10-25T06:50:36.812Z,90.09
2022-10-25T06:51:36.787Z,90.09
2022-10-25T06:52:36.787Z,90.09
2022-10-25T06:53:36.778Z,90.20
2022-10-25T06:54:36.780Z,90.09
2022-10-25T06:55:36.758Z,89.99
2022-10-25T06:56:36.764Z,89.89
2022-10-25T06:57:36.714Z,89.79
2022-10-25T06:58:36.729Z,89.89
2022-10-25T06:59:36.713Z,89.89
2022-10-25T07:00:36.690Z,89.99
2022-10-25T07:01:36.823Z,89.89
2022-10-25T07:02:36.653Z,89.75
2022-10-25T07:03:36.633Z,89.69
2022-10-25T07:04:36.674Z,89.59
2022-10-25T07:05:36.644Z,89.54
2022-10-25T07:06:36.631Z,89.64
2022-10-25T07:07:36.601Z,89.75
2022-10-25T07:08:36.572Z,89.85
2022-10-25T07:09:36.568Z,89.75
2022-10-25T07:10:36.553Z,89.85
2022-10-25T07:11:36.544Z,89.85
2022-10-25T07:12:36.543Z,89.75
2022-10-25T07:13:36.510Z,89.54
2022-10-25T07:14:36.513Z,89.54
2022-10-25T07:15:38.662Z,89.75
2022-10-25T07:16:37.463Z,89.75
2022-10-25T07:17:36.452Z,89.64
2022-10-25T07:18:36.451Z,89.75
2022-10-25T07:19:36.462Z,89.54
2022-10-25T07:20:36.442Z,89.54
2022-10-25T07:21:36.429Z,89.44
2022-10-25T07:22:36.404Z,89.44
2022-10-25T07:23:36.442Z,89.44
2022-10-25T07:24:36.393Z,89.54
2022-10-25T07:25:36.343Z,89.24
2022-10-25T07:26:36.354Z,89.14
2022-10-25T07:27:36.314Z,89.14
2022-10-25T07:28:36.313Z,89.14
2022-10-25T07:29:36.321Z,89.14
2022-10-25T07:30:36.292Z,89.09
2022-10-25T07:31:36.273Z,89.20
2022-10-25T07:32:41.396Z,89.09
2022-10-25T07:33:37.248Z,89.00
2022-10-25T07:34:36.251Z,88.89
2022-10-25T07:35:42.098Z,88.89
2022-10-25T07:36:37.235Z,88.89
2022-10-25T07:37:36.211Z,88.89
2022-10-25T07:38:36.192Z,89.09
2022-10-25T07:39:36.191Z,89.09
2022-10-25T07:40:36.165Z,89.00
2022-10-25T07:41:36.146Z,89.09
2022-10-25T07:42:36.133Z,89.00
2022-10-25T07:43:36.121Z,89.09
2022-10-25T07:44:36.148Z,89.09
2022-10-25T07:45:36.090Z,89.00
2022-10-25T07:46:36.082Z,89.00
2022-10-25T07:47:36.051Z,88.89
2022-10-25T07:48:36.080Z,88.89
2022-10-25T07:49:36.041Z,89.00
2022-10-25T07:50:36.043Z,89.00
2022-10-25T07:51:36.009Z,89.00
2022-10-25T07:52:36.010Z,88.89
2022-10-25T07:53:35.979Z,88.89
2022-10-25T07:54:36.035Z,88.79
2022-10-25T07:55:35.980Z,88.79
2022-10-25T07:56:36.091Z,88.89
2022-10-25T07:57:35.940Z,88.89
2022-10-25T07:58:35.921Z,88.89
2022-10-25T07:59:35.913Z,88.89
2022-10-25T08:00:35.900Z,89.00
2022-10-25T08:01:35.948Z,88.89
2022-10-25T08:02:35.873Z,89.09
2022-10-25T08:03:35.853Z,89.09
2022-10-25T08:04:35.862Z,89.20
2022-10-25T08:05:35.824Z,89.40
2022-10-25T08:06:35.809Z,89.30
2022-10-25T08:07:35.811Z,89.30
2022-10-25T08:08:35.792Z,89.20
2022-10-25T08:09:38.268Z,89.00
2022-10-25T08:10:35.783Z,89.09
2022-10-25T08:11:35.749Z,89.30
2022-10-25T08:12:35.749Z,89.40
2022-10-25T08:13:35.730Z,89.20
2022-10-25T08:14:39.662Z,89.20
2022-10-25T08:15:36.735Z,89.30
2022-10-25T08:16:35.692Z,89.20
2022-10-25T08:17:35.663Z,89.09
2022-10-25T08:18:35.686Z,89.20
2022-10-25T08:19:35.651Z,89.30
2022-10-25T08:21:04.693Z,89.40
2022-10-25T08:21:36.619Z,89.40
2022-10-25T08:22:35.619Z,89.26
2022-10-25T08:23:35.607Z,89.26
2022-10-25T08:24:35.598Z,89.26
2022-10-25T08:25:35.562Z,89.36
2022-10-25T08:26:37.001Z,89.36
2022-10-25T08:27:35.538Z,89.26
2022-10-25T08:28:35.551Z,89.15
2022-10-25T08:29:35.516Z,89.36
2022-10-25T08:30:35.502Z,89.15
2022-10-25T08:31:35.491Z,89.15
2022-10-25T08:32:35.501Z,89.15
2022-10-25T08:33:35.490Z,89.05
2022-10-25T08:34:35.450Z,89.15
2022-10-25T08:35:35.443Z,89.42
2022-10-25T08:36:35.447Z,89.31
2022-10-25T08:37:35.409Z,89.22
2022-10-25T08:38:35.409Z,89.11
2022-10-25T08:39:35.399Z,89.17
2022-10-25T08:40:35.402Z,89.07
2022-10-25T08:41:35.371Z,89.07
2022-10-25T08:42:35.338Z,88.93
2022-10-25T08:43:35.359Z,88.82
2022-10-25T08:44:35.331Z,88.82
2022-10-25T08:45:35.296Z,88.68
2022-10-25T08:46:35.295Z,88.58
2022-10-25T08:47:35.281Z,88.38
2022-10-25T08:48:35.335Z,88.28
2022-10-25T08:49:35.284Z,87.87
2022-10-25T08:50:35.237Z,87.77
2022-10-25T08:51:35.217Z,87.67
2022-10-25T08:52:35.251Z,87.77
2022-10-25T08:53:35.257Z,87.63
2022-10-25T08:54:35.227Z,87.63
2022-10-25T08:55:35.164Z,87.63
2022-10-25T08:56:39.460Z,87.63
2022-10-25T08:57:36.158Z,87.63
2022-10-25T08:58:35.147Z,87.59
2022-10-25T08:59:35.106Z,87.48
2022-10-25T09:00:35.097Z,87.34
2022-10-25T09:01:35.154Z,87.24
2022-10-25T09:02:35.134Z,87.10
2022-10-25T09:03:35.155Z,87.00
2022-10-25T09:04:35.085Z,86.90
2022-10-25T09:05:35.050Z,86.65
2022-10-25T09:06:35.016Z,86.55
2022-10-25T09:07:36.397Z,86.41
2022-10-25T09:08:35.023Z,86.27
2022-10-25T09:09:34.996Z,85.96
2022-10-25T09:10:34.977Z,85.72
2022-10-25T09:11:34.956Z,85.52
2022-10-25T09:12:34.986Z,85.22
2022-10-25T09:14:34.938Z,84.47
2022-10-25T09:15:36.817Z,83.96
2022-10-25T09:16:34.918Z,83.56
2022-10-25T09:17:34.881Z,83.36
2022-10-25T09:18:34.865Z,83.05
2022-10-25T09:19:34.887Z,82.75
2022-10-25T09:20:34.849Z,82.69
2022-10-25T09:21:34.840Z,82.79
2022-10-25T09:22:34.812Z,82.89
2022-10-25T09:23:34.821Z,82.59
2022-10-25T09:24:34.852Z,82.39
2022-10-25T09:25:34.775Z,82.35
2022-10-25T09:26:34.758Z,82.24
2022-10-25T09:27:34.747Z,81.94
2022-10-25T09:28:34.728Z,81.74
2022-10-25T09:29:34.747Z,81.64
2022-10-25T09:30:34.705Z,81.64
2022-10-25T09:31:34.690Z,81.64
2022-10-25T09:32:34.690Z,81.50
2022-10-25T09:33:34.671Z,81.50
2022-10-25T09:34:34.668Z,81.30
2022-10-25T09:35:34.645Z,80.90
2022-10-25T09:36:34.652Z,80.90
2022-10-25T09:37:34.606Z,80.19
2022-10-25T09:38:34.699Z,80.39
2022-10-25T09:39:34.657Z,80.49
2022-10-25T09:40:34.582Z,80.49
2022-10-25T09:41:34.574Z,80.69
2022-10-25T09:42:34.609Z,80.19
2022-10-25T09:43:34.560Z,79.38
2022-10-25T09:44:34.556Z,79.58
2022-10-25T09:45:37.352Z,79.68
2022-10-25T09:46:35.496Z,79.88
2022-10-25T09:47:34.507Z,79.79
2022-10-25T09:48:34.514Z,79.79
2022-10-25T09:49:34.460Z,79.52
2022-10-25T09:50:34.435Z,79.11
2022-10-25T09:51:34.430Z,78.71
2022-10-25T09:52:34.413Z,78.64
2022-10-25T09:53:34.424Z,78.95
2022-10-25T09:54:34.383Z,79.15
2022-10-25T09:55:34.381Z,79.46
2022-10-25T09:56:34.357Z,79.75
2022-10-25T09:57:34.392Z,79.96
2022-10-25T09:58:34.364Z,80.06
2022-10-25T09:59:36.042Z,79.86
2022-10-25T10:00:34.313Z,79.96
2022-10-25T10:01:34.402Z,80.06
2022-10-25T10:02:34.370Z,80.06
2022-10-25T10:03:34.291Z,79.96
2022-10-25T10:04:34.261Z,80.16
2022-10-25T10:05:34.250Z,80.22
2022-10-25T10:06:34.252Z,80.32
2022-10-25T10:07:34.233Z,80.22
2022-10-25T10:08:34.231Z,79.41
2022-10-25T10:09:34.196Z,79.11
2022-10-25T10:10:34.175Z,78.71
2022-10-25T10:11:34.182Z,78.41
2022-10-25T10:12:34.150Z,78.10
2022-10-25T10:13:34.174Z,77.39
2022-10-25T10:14:34.124Z,77.80
2022-10-25T10:15:34.121Z,77.80
2022-10-25T10:16:34.095Z,78.00
2022-10-25T10:17:34.112Z,77.80
2022-10-25T10:18:34.096Z,77.90
2022-10-25T10:19:34.081Z,77.13
2022-10-25T10:20:34.063Z,77.03
2022-10-25T10:21:34.045Z,77.33
2022-10-25T10:22:34.033Z,77.73
2022-10-25T10:23:34.036Z,77.53
2022-10-25T10:24:34.006Z,77.87
2022-10-25T10:25:33.998Z,78.08
2022-10-25T10:26:33.972Z,77.97
2022-10-25T10:27:33.969Z,77.87
2022-10-25T10:28:33.960Z,78.08
2022-10-25T10:29:33.941Z,78.17
2022-10-25T10:30:33.913Z,78.08
2022-10-25T10:31:33.914Z,78.17
2022-10-25T10:32:33.937Z,78.38
2022-10-25T10:33:33.942Z,78.48
2022-10-25T10:34:33.879Z,77.87
2022-10-25T10:35:33.871Z,77.67
2022-10-25T10:36:33.846Z,78.08
2022-10-25T10:37:33.930Z,78.38
2022-10-25T10:38:33.833Z,78.58
2022-10-25T10:39:33.808Z,78.48
2022-10-25T10:40:33.790Z,78.38
2022-10-25T10:41:33.783Z,78.55
2022-10-25T10:42:33.773Z,77.84
2022-10-25T10:43:33.791Z,77.94
2022-10-25T10:44:33.733Z,77.94
2022-10-25T10:45:33.739Z,78.14
2022-10-25T10:46:33.701Z,78.24
2022-10-25T10:47:33.710Z,78.34
2022-10-25T10:48:33.700Z,78.14
2022-10-25T10:49:33.683Z,77.84
2022-10-25T10:50:33.658Z,77.64
2022-10-25T10:51:43.684Z,77.53
2022-10-25T10:52:34.623Z,77.64
2022-10-25T10:53:33.620Z,77.73
2022-10-25T10:54:33.612Z,77.90
2022-10-25T10:55:33.599Z,77.90
2022-10-25T10:56:33.591Z,78.20
2022-10-25T10:57:33.561Z,78.20
2022-10-25T10:58:33.553Z,78.17
2022-10-25T10:59:33.560Z,78.17
2022-10-25T11:00:33.546Z,77.86
2022-10-25T11:01:33.808Z,75.84
2022-10-25T11:02:33.648Z,76.04
2022-10-25T11:03:33.505Z,76.45
2022-10-25T11:04:33.495Z,76.86
2022-10-25T11:05:33.475Z,76.04
2022-10-25T11:06:33.522Z,75.71
2022-10-25T11:07:33.443Z,76.21
2022-10-25T11:08:33.412Z,76.51
2022-10-25T11:09:33.430Z,75.91
2022-10-25T11:10:33.400Z,75.91
2022-10-25T11:11:33.391Z,75.54
2022-10-25T11:12:36.523Z,74.22
2022-10-25T11:13:34.361Z,74.73
2022-10-25T11:14:33.362Z,75.13
2022-10-25T11:15:33.332Z,75.54
2022-10-25T11:16:33.311Z,75.54
2022-10-25T11:17:33.312Z,75.95
2022-10-25T11:18:33.281Z,75.95
2022-10-25T11:19:33.311Z,75.95
2022-10-25T11:20:33.264Z,75.64
2022-10-25T11:21:33.248Z,74.73
2022-10-25T11:22:33.302Z,74.93
2022-10-25T11:23:33.301Z,74.43
2022-10-25T11:24:33.224Z,75.04
2022-10-25T11:25:33.202Z,75.44
2022-10-25T11:26:33.172Z,75.54
2022-10-25T11:27:34.992Z,75.24
2022-10-25T11:28:33.161Z,75.17
2022-10-25T11:29:33.162Z,75.27
2022-10-25T11:30:33.133Z,75.07
2022-10-25T11:31:33.125Z,75.27
2022-10-25T11:32:33.148Z,75.37
2022-10-25T11:33:33.102Z,75.57
2022-10-25T11:34:33.102Z,75.78
2022-10-25T11:35:33.080Z,75.68
2022-10-25T11:36:33.050Z,74.87
2022-10-25T11:37:33.045Z,74.97
2022-10-25T11:38:33.028Z,74.97
2022-10-25T11:39:33.024Z,75.07
2022-10-25T11:40:32.990Z,74.97
2022-10-25T11:41:33.009Z,75.17
2022-10-25T11:42:32.984Z,75.27
2022-10-25T11:43:32.981Z,75.37
2022-10-25T11:44:32.957Z,74.87
2022-10-25T11:45:32.933Z,74.77
2022-10-25T11:46:32.941Z,74.46
2022-10-25T11:47:32.908Z,74.66
2022-10-25T11:48:32.904Z,74.57
2022-10-25T11:49:32.893Z,73.96
2022-10-25T11:50:32.869Z,73.66
2022-10-25T11:51:32.859Z,73.66
2022-10-25T11:52:32.855Z,74.06
2022-10-25T11:53:32.820Z,74.57
2022-10-25T11:54:32.834Z,74.93
2022-10-25T11:55:32.812Z,74.84
2022-10-25T11:56:32.797Z,73.62
2022-10-25T11:57:32.779Z,74.33
2022-10-25T11:58:32.779Z,74.02
2022-10-25T11:59:32.770Z,73.89
2022-10-25T12:00:32.737Z,73.89
2022-10-25T12:01:32.775Z,71.87
2022-10-25T12:02:32.768Z,72.68
2022-10-25T12:03:32.699Z,72.48
2022-10-25T12:04:33.661Z,72.85
2022-10-25T12:05:32.691Z,72.95
2022-10-25T12:06:32.652Z,72.85
2022-10-25T12:07:32.648Z,72.44
2022-10-25T12:08:32.630Z,71.80
2022-10-25T12:09:32.671Z,71.44
2022-10-25T12:10:32.652Z,71.64
2022-10-25T12:11:32.592Z,71.13
2022-10-25T12:12:32.580Z,70.53
2022-10-25T12:13:32.571Z,70.53
2022-10-25T12:14:32.582Z,70.12
2022-10-25T12:15:32.569Z,70.73
2022-10-25T12:16:32.530Z,71.13
2022-10-25T12:17:32.521Z,71.53
2022-10-25T12:18:32.507Z,71.53
2022-10-25T12:19:32.512Z,70.93
2022-10-25T12:20:32.481Z,71.53
2022-10-25T12:21:32.470Z,71.64
2022-10-25T12:22:32.444Z,71.53
2022-10-25T12:23:32.432Z,71.73
2022-10-25T12:24:32.441Z,71.44
2022-10-25T12:25:32.427Z,71.13
2022-10-25T12:26:32.401Z,70.53
2022-10-25T12:27:32.383Z,70.83
2022-10-25T12:28:32.361Z,71.33
2022-10-25T12:29:32.381Z,71.33
2022-10-25T12:30:32.346Z,71.50
2022-10-25T12:31:32.342Z,71.80
2022-10-25T12:32:32.313Z,71.60
2022-10-25T12:33:32.331Z,71.30
2022-10-25T12:34:32.281Z,71.60
2022-10-25T12:35:32.287Z,71.97
2022-10-25T12:36:32.270Z,72.17
2022-10-25T12:37:32.273Z,71.67
2022-10-25T12:38:32.251Z,71.57
2022-10-25T12:39:32.240Z,71.77
2022-10-25T12:40:32.212Z,71.73
2022-10-25T12:41:32.203Z,71.84
2022-10-25T12:42:32.186Z,71.64
2022-10-25T12:43:32.190Z,71.53
2022-10-25T12:44:32.160Z,71.50
2022-10-25T12:45:32.162Z,71.20
2022-10-25T12:46:32.134Z,71.30
2022-10-25T12:47:32.138Z,71.10
2022-10-25T12:48:32.122Z,70.39
2022-10-25T12:49:32.103Z,70.59
2022-10-25T12:50:32.081Z,70.50
2022-10-25T12:51:32.069Z,70.59
2022-10-25T12:52:32.060Z,70.29
2022-10-25T12:53:32.052Z,69.99
2022-10-25T12:54:32.044Z,69.99